createdAt,value
2023-01-30T00:01:32.177Z,16.02
2023-01-30T00:04:00.238Z,19.65
2023-01-30T00:06:27.921Z,19.10
2023-01-30T00:08:55.482Z,19.02
2023-01-30T00:11:23.496Z,19.40
2023-01-30T00:13:51.815Z,19.05
2023-01-30T00:16:19.000Z,20.55
2023-01-30T00:18:46.622Z,20.58
2023-01-30T00:21:15.452Z,19.63
2023-01-30T00:23:43.518Z,19.00
2023-01-30T00:26:11.637Z,18.98
2023-01-30T00:28:40.659Z,19.48
2023-01-30T00:31:08.490Z,21.35
2023-01-30T00:33:38.400Z,20.10
2023-01-30T00:36:06.060Z,20.67
2023-01-30T00:38:33.547Z,21.02
2023-01-30T00:41:01.062Z,15.32
2023-01-30T00:43:46.889Z,21.98
2023-01-30T00:46:50.408Z,23.23
2023-01-30T00:49:18.228Z,20.35
2023-01-30T00:51:45.487Z,22.23
2023-01-30T00:54:13.811Z,24.38
2023-01-30T00:56:40.923Z,20.95
2023-01-30T00:59:08.286Z,22.63
2023-01-30T01:01:35.528Z,22.85
2023-01-30T01:04:02.964Z,22.17
2023-01-30T01:06:30.122Z,21.67
2023-01-30T01:08:57.423Z,22.50
2023-01-30T01:11:24.878Z,21.38
2023-01-30T01:13:54.177Z,22.05
2023-01-30T01:16:22.634Z,21.00
2023-01-30T01:18:50.911Z,19.52
2023-01-30T01:21:20.393Z,19.90
2023-01-30T01:23:52.779Z,20.40
2023-01-30T01:26:20.505Z,20.90
2023-01-30T01:28:48.199Z,19.17
2023-01-30T01:31:16.985Z,19.55
2023-01-30T01:33:44.527Z,19.85
2023-01-30T01:36:16.222Z,21.73
2023-01-30T01:38:47.332Z,15.23
2023-01-30T01:41:17.415Z,20.17
2023-01-30T01:44:05.924Z,19.55
2023-01-30T01:46:42.809Z,18.35
2023-01-30T01:49:18.258Z,18.23
2023-01-30T01:51:53.592Z,19.02
2023-01-30T01:56:53.754Z,16.92
2023-01-30T01:59:27.108Z,17.38
2023-01-30T02:01:58.413Z,16.73
2023-01-30T02:04:47.600Z,18.70
2023-01-30T02:07:18.757Z,18.17
2023-01-30T02:09:46.535Z,15.88
2023-01-30T02:12:15.354Z,16.73
2023-01-30T02:14:43.697Z,13.65
2023-01-30T02:17:13.824Z,15.32
2023-01-30T02:19:49.190Z,16.10
2023-01-30T02:22:35.864Z,14.13
2023-01-30T02:25:32.733Z,14.40
2023-01-30T02:28:17.781Z,14.88
2023-01-30T02:30:54.036Z,15.30
2023-01-30T02:33:35.829Z,14.93
2023-01-30T02:36:20.097Z,13.73
2023-01-30T02:39:08.774Z,14.15
2023-01-30T02:42:19.150Z,15.25
2023-01-30T02:45:01.463Z,16.15
2023-01-30T02:47:53.066Z,15.77
2023-01-30T02:50:26.020Z,15.75
2023-01-30T02:52:55.028Z,17.60
2023-01-30T02:55:28.528Z,16.58
2023-01-30T02:57:57.076Z,17.38
2023-01-30T03:00:48.832Z,16.17
2023-01-30T03:03:30.297Z,16.33
2023-01-30T03:06:15.989Z,15.38
2023-01-30T03:08:54.074Z,16.20
2023-01-30T03:11:28.558Z,15.68
2023-01-30T03:14:11.873Z,14.90
2023-01-30T03:16:40.916Z,16.27
2023-01-30T03:19:13.204Z,16.33
2023-01-30T03:21:42.740Z,15.77
2023-01-30T03:24:10.204Z,14.93
2023-01-30T03:26:54.890Z,15.30
2023-01-30T03:29:23.185Z,14.70
2023-01-30T03:31:51.031Z,15.70
2023-01-30T03:34:18.480Z,15.23
2023-01-30T03:36:47.412Z,16.20
2023-01-30T03:39:16.727Z,14.90
2023-01-30T03:41:44.041Z,13.40
2023-01-30T03:44:11.496Z,15.68
2023-01-30T03:46:40.247Z,15.95
2023-01-30T03:49:07.590Z,14.88
2023-01-30T03:51:35.095Z,13.90
2023-01-30T03:54:03.943Z,10.05
2023-01-30T03:56:31.510Z,12.82
2023-01-30T03:58:59.071Z,13.63
2023-01-30T04:01:34.994Z,13.55
2023-01-30T04:04:03.094Z,12.43
2023-01-30T04:06:30.173Z,12.45
2023-01-30T04:08:57.694Z,13.75
2023-01-30T04:11:39.703Z,14.25
2023-01-30T04:14:07.114Z,15.63
2023-01-30T04:16:43.035Z,14.63
2023-01-30T04:19:29.982Z,14.15
2023-01-30T04:21:57.387Z,15.32
2023-01-30T04:24:24.764Z,17.05
2023-01-30T04:26:51.833Z,15.45
2023-01-30T04:29:19.745Z,16.13
2023-01-30T04:31:51.401Z,15.35
2023-01-30T04:34:22.370Z,15.75
2023-01-30T04:36:49.726Z,16.00
2023-01-30T04:39:18.974Z,15.43
2023-01-30T04:41:47.176Z,15.27
2023-01-30T04:44:14.514Z,15.70
2023-01-30T04:46:52.554Z,16.08
2023-01-30T04:49:20.854Z,14.73
2023-01-30T04:51:49.195Z,15.88
2023-01-30T04:54:16.612Z,15.20
2023-01-30T04:56:43.811Z,14.93
2023-01-30T04:59:11.175Z,14.93
2023-01-30T05:01:43.270Z,13.80
2023-01-30T05:04:10.733Z,14.57
2023-01-30T05:06:37.833Z,13.30
2023-01-30T05:09:06.098Z,13.93
2023-01-30T05:11:33.780Z,11.20
2023-01-30T05:14:01.583Z,14.15
2023-01-30T05:16:29.101Z,12.32
2023-01-30T05:18:56.732Z,14.38
2023-01-30T05:21:26.338Z,14.65
2023-01-30T05:23:54.597Z,14.32
2023-01-30T05:26:22.462Z,16.23
2023-01-30T05:28:56.395Z,18.50
2023-01-30T05:31:24.167Z,19.42
2023-01-30T05:33:52.670Z,12.77
2023-01-30T05:36:21.810Z,13.23
2023-01-30T05:38:49.329Z,14.07
2023-01-30T05:41:17.429Z,14.57
2023-01-30T05:43:48.927Z,16.92
2023-01-30T05:46:16.058Z,17.08
2023-01-30T05:48:43.437Z,14.52
2023-01-30T05:51:22.658Z,24.25
2023-01-30T05:53:51.217Z,28.75
2023-01-30T05:56:19.341Z,20.30
2023-01-30T05:58:56.748Z,17.02
2023-01-30T06:01:24.467Z,19.48
2023-01-30T06:03:52.335Z,16.95
2023-01-30T06:06:19.767Z,16.50
2023-01-30T06:08:47.493Z,16.92
2023-01-30T06:11:16.727Z,16.67
2023-01-30T06:13:44.409Z,13.52
2023-01-30T06:16:13.667Z,13.10
2023-01-30T06:18:41.377Z,13.77
2023-01-30T06:21:09.431Z,12.93
2023-01-30T06:23:36.987Z,13.98
2023-01-30T06:26:06.252Z,15.55
2023-01-30T06:28:36.062Z,18.75
2023-01-30T06:31:03.285Z,13.85
2023-01-30T06:33:30.741Z,17.33
2023-01-30T06:35:57.776Z,16.00
2023-01-30T06:38:26.151Z,15.23
2023-01-30T06:40:54.042Z,15.20
2023-01-30T06:43:21.656Z,16.27
2023-01-30T06:45:48.758Z,19.45
2023-01-30T06:48:16.144Z,18.55
2023-01-30T06:50:43.343Z,16.90
2023-01-30T06:53:11.117Z,16.85
2023-01-30T06:55:38.470Z,19.13
2023-01-30T06:58:11.330Z,22.88
2023-01-30T07:00:40.301Z,18.92
2023-01-30T07:03:15.554Z,19.75
2023-01-30T07:05:44.342Z,19.23
2023-01-30T07:08:12.243Z,14.98
2023-01-30T07:10:40.244Z,25.08
2023-01-30T07:13:07.642Z,20.38
2023-01-30T07:15:34.963Z,20.90
2023-01-30T07:18:02.356Z,15.93
2023-01-30T07:20:31.222Z,21.95
2023-01-30T07:22:58.715Z,22.77
2023-01-30T07:25:28.187Z,16.23
2023-01-30T07:27:59.849Z,15.25
2023-01-30T07:30:28.984Z,15.13
2023-01-30T07:32:58.658Z,14.55
2023-01-30T07:35:28.200Z,13.70
2023-01-30T07:37:55.745Z,14.98
2023-01-30T07:40:23.963Z,15.52
2023-01-30T07:42:57.871Z,15.15
2023-01-30T07:45:28.308Z,16.92
2023-01-30T07:47:55.683Z,15.32
2023-01-30T07:50:22.856Z,14.38
2023-01-30T07:52:50.307Z,14.77
2023-01-30T07:55:17.748Z,15.48
2023-01-30T07:57:45.397Z,22.52
2023-01-30T08:00:13.099Z,14.75
2023-01-30T08:02:40.481Z,20.65
2023-01-30T08:05:07.946Z,14.65
2023-01-30T08:07:35.325Z,15.27
2023-01-30T08:10:02.609Z,9.73
2023-01-30T08:12:30.056Z,12.32
2023-01-30T08:14:57.102Z,11.75
2023-01-30T08:17:24.497Z,13.95
2023-01-30T08:19:51.657Z,13.27
2023-01-30T08:22:19.013Z,11.98
2023-01-30T08:24:46.181Z,13.90
2023-01-30T08:27:13.490Z,14.00
2023-01-30T08:29:40.570Z,14.27
2023-01-30T08:32:07.937Z,12.40
2023-01-30T08:34:36.040Z,11.68
2023-01-30T08:37:03.543Z,13.88
2023-01-30T08:39:30.865Z,14.10
2023-01-30T08:41:58.167Z,17.95
2023-01-30T08:44:25.288Z,11.70
2023-01-30T08:46:52.626Z,12.55
2023-01-30T08:49:19.658Z,14.10
2023-01-30T08:51:47.045Z,13.30
2023-01-30T08:54:14.175Z,10.65
2023-01-30T08:56:41.923Z,9.82
2023-01-30T08:59:09.555Z,12.93
2023-01-30T09:01:38.338Z,12.45
2023-01-30T09:04:05.666Z,13.20
2023-01-30T09:06:33.049Z,13.32
2023-01-30T09:09:00.458Z,13.00
2023-01-30T09:11:27.987Z,13.25
2023-01-30T09:13:55.260Z,12.48
2023-01-30T09:16:22.606Z,12.25
2023-01-30T09:18:49.671Z,12.80
2023-01-30T09:21:17.094Z,13.48
2023-01-30T09:23:44.349Z,13.35
2023-01-30T09:26:11.729Z,13.38
2023-01-30T09:28:39.297Z,12.82
2023-01-30T09:31:06.902Z,15.13
2023-01-30T09:33:33.960Z,13.07
2023-01-30T09:36:01.672Z,13.15
2023-01-30T09:38:28.901Z,12.77
2023-01-30T09:40:59.300Z,16.30
2023-01-30T09:44:00.600Z,13.13
2023-01-30T09:47:02.899Z,14.45
2023-01-30T09:49:50.142Z,13.35
2023-01-30T09:52:27.793Z,13.50
2023-01-30T09:55:02.467Z,12.95
2023-01-30T09:57:29.898Z,17.05
2023-01-30T10:00:20.242Z,15.15
2023-01-30T10:03:14.124Z,16.20
2023-01-30T10:05:49.260Z,16.95
2023-01-30T10:08:46.650Z,15.05
2023-01-30T10:11:49.030Z,15.90
2023-01-30T10:14:31.867Z,16.15
2023-01-30T10:17:18.486Z,14.00
2023-01-30T10:20:16.517Z,16.65
2023-01-30T10:22:53.336Z,21.30
2023-01-30T10:25:27.876Z,26.42
2023-01-30T10:28:24.575Z,18.40
2023-01-30T10:31:00.787Z,17.23
2023-01-30T10:33:35.741Z,23.83
2023-01-30T10:36:14.640Z,18.90
2023-01-30T10:38:46.668Z,20.20
2023-01-30T10:41:29.714Z,15.48
2023-01-30T10:44:09.635Z,19.10
2023-01-30T10:47:04.174Z,20.45
2023-01-30T10:49:40.506Z,15.90
2023-01-30T10:52:18.596Z,17.05
2023-01-30T10:55:36.862Z,25.20
2023-01-30T10:58:32.332Z,15.88
2023-01-30T11:01:10.995Z,15.02
2023-01-30T11:03:46.018Z,14.55
2023-01-30T11:06:17.825Z,15.18
2023-01-30T11:08:45.859Z,15.05
2023-01-30T11:11:29.261Z,12.38
2023-01-30T11:14:10.347Z,14.88
2023-01-30T11:16:57.695Z,14.93
2023-01-30T11:19:37.322Z,17.33
2023-01-30T11:22:05.646Z,17.20
2023-01-30T11:24:40.823Z,14.18
2023-01-30T11:27:19.231Z,17.20
2023-01-30T11:29:47.889Z,15.00
2023-01-30T11:32:28.179Z,13.90
2023-01-30T11:35:07.801Z,15.88
2023-01-30T11:37:41.328Z,12.95
2023-01-30T11:40:31.186Z,14.52
2023-01-30T11:43:13.416Z,10.30
2023-01-30T11:45:50.641Z,14.25
2023-01-30T11:49:00.591Z,13.13
2023-01-30T11:51:14.149Z,14.50
2023-01-30T11:53:56.247Z,17.45
2023-01-30T11:56:40.611Z,14.55
2023-01-30T11:59:28.623Z,14.57
2023-01-30T12:02:20.498Z,16.02
2023-01-30T12:04:53.873Z,16.08
2023-01-30T12:07:36.232Z,20.75
2023-01-30T12:10:29.525Z,21.17
2023-01-30T12:13:06.887Z,24.77
2023-01-30T12:15:35.289Z,16.63
2023-01-30T12:18:32.422Z,21.00
2023-01-30T12:21:15.602Z,13.73
2023-01-30T12:23:56.190Z,14.48
2023-01-30T12:26:46.825Z,20.58
2023-01-30T12:29:29.073Z,19.17
2023-01-30T12:34:34.249Z,20.08
2023-01-30T12:37:26.549Z,15.40
2023-01-30T12:40:35.349Z,21.08
2023-01-30T12:46:03.454Z,14.20
2023-01-30T12:49:10.107Z,20.63
2023-01-30T12:52:10.843Z,17.08
2023-01-30T12:54:52.958Z,18.83
2023-01-30T12:57:47.819Z,14.57
2023-01-30T13:00:36.408Z,21.30
2023-01-30T13:03:26.223Z,25.05
2023-01-30T13:06:16.097Z,21.35
2023-01-30T13:08:46.291Z,18.38
2023-01-30T13:11:29.029Z,17.73
2023-01-30T13:14:01.100Z,21.63
2023-01-30T13:16:55.361Z,16.60
2023-01-30T13:19:40.944Z,18.52
2023-01-30T13:22:22.894Z,17.33
2023-01-30T13:25:11.532Z,18.08
2023-01-30T13:27:44.180Z,17.45
2023-01-30T13:30:17.459Z,17.33
2023-01-30T13:32:49.310Z,18.40
2023-01-30T13:35:33.665Z,15.52
2023-01-30T13:38:03.207Z,16.73
2023-01-30T13:40:38.618Z,17.58
2023-01-30T13:43:10.134Z,17.05
2023-01-30T13:45:43.704Z,18.77
2023-01-30T13:48:24.819Z,19.45
2023-01-30T13:51:10.517Z,19.92
2023-01-30T13:54:02.971Z,19.05
2023-01-30T13:56:41.329Z,20.88
2023-01-30T13:59:46.001Z,18.42
2023-01-30T14:02:19.062Z,21.13
2023-01-30T14:04:48.494Z,22.15
2023-01-30T14:07:32.124Z,20.95
2023-01-30T14:10:20.590Z,15.65
2023-01-30T14:12:53.836Z,19.13
2023-01-30T14:15:32.135Z,18.63
2023-01-30T14:18:07.148Z,21.83
2023-01-30T14:20:44.348Z,22.73
2023-01-30T14:23:34.893Z,19.42
2023-01-30T14:26:02.134Z,20.15
2023-01-30T14:28:29.585Z,19.10
2023-01-30T14:31:02.567Z,22.20
2023-01-30T14:33:47.560Z,23.20
2023-01-30T14:36:14.681Z,26.50
2023-01-30T14:38:44.476Z,18.05
2023-01-30T14:41:26.142Z,17.40
2023-01-30T14:43:54.393Z,16.00
2023-01-30T14:46:21.653Z,17.20
2023-01-30T14:48:55.747Z,18.15
2023-01-30T14:51:45.420Z,19.45
2023-01-30T14:54:13.323Z,20.75
2023-01-30T14:56:46.501Z,23.40
2023-01-30T14:59:17.161Z,20.48
2023-01-30T15:01:58.896Z,22.20
2023-01-30T15:04:29.874Z,32.85
2023-01-30T15:06:59.167Z,23.33
2023-01-30T15:09:28.449Z,21.80
2023-01-30T15:12:31.331Z,21.50
2023-01-30T15:15:25.919Z,19.70
2023-01-30T15:18:29.800Z,21.70
2023-01-30T15:21:15.376Z,19.33
2023-01-30T15:23:58.122Z,27.17
2023-01-30T15:26:31.173Z,18.83
2023-01-30T15:29:06.087Z,20.15
2023-01-30T15:31:33.888Z,23.17
2023-01-30T15:34:01.091Z,22.40
2023-01-30T15:36:30.680Z,24.38
2023-01-30T15:39:04.241Z,20.60
2023-01-30T15:41:39.986Z,22.50
2023-01-30T15:44:12.110Z,72.03
2023-01-30T15:46:55.080Z,21.27
2023-01-30T15:49:25.211Z,30.38
2023-01-30T15:51:53.502Z,22.20
2023-01-30T15:54:23.755Z,27.50
2023-01-30T15:56:51.258Z,22.40
2023-01-30T15:59:34.404Z,21.50
2023-01-30T16:02:07.024Z,21.80
2023-01-30T16:04:34.564Z,36.40
2023-01-30T16:07:24.825Z,55.15
2023-01-30T16:10:06.778Z,23.05
2023-01-30T16:12:34.468Z,28.30
2023-01-30T16:15:18.525Z,31.45
2023-01-30T16:17:59.510Z,20.40
2023-01-30T16:20:26.677Z,19.13
2023-01-30T16:22:54.443Z,21.48
2023-01-30T16:25:30.207Z,20.27
2023-01-30T16:28:00.738Z,17.20
2023-01-30T16:30:29.815Z,16.15
2023-01-30T16:32:57.654Z,19.48
2023-01-30T16:35:27.259Z,20.02
2023-01-30T16:37:57.524Z,19.05
2023-01-30T16:40:33.166Z,17.58
2023-01-30T16:43:21.663Z,19.90
2023-01-30T16:45:54.901Z,20.88
2023-01-30T16:48:36.960Z,19.50
2023-01-30T16:51:18.131Z,17.23
2023-01-30T16:53:58.238Z,18.05
2023-01-30T16:56:26.449Z,21.17
2023-01-30T16:58:57.973Z,16.80
2023-01-30T17:01:37.926Z,20.10
2023-01-30T17:04:08.139Z,21.17
2023-01-30T17:06:42.925Z,23.23
2023-01-30T17:09:45.418Z,21.13
2023-01-30T17:12:28.253Z,18.40
2023-01-30T17:15:13.619Z,19.67
2023-01-30T17:17:41.812Z,19.70
2023-01-30T17:20:11.577Z,19.63
2023-01-30T17:22:40.333Z,19.90
2023-01-30T17:25:18.824Z,18.00
2023-01-30T17:27:46.111Z,21.25
2023-01-30T17:30:15.982Z,20.55
2023-01-30T17:32:43.226Z,18.58
2023-01-30T17:35:12.445Z,19.08
2023-01-30T17:37:39.606Z,21.20
2023-01-30T17:40:18.245Z,21.17
2023-01-30T17:42:47.208Z,17.67
2023-01-30T17:45:15.006Z,18.33
2023-01-30T17:47:42.229Z,21.05
2023-01-30T17:50:14.379Z,17.65
2023-01-30T17:52:41.977Z,18.88
2023-01-30T17:55:13.249Z,18.73
2023-01-30T17:57:43.428Z,19.08
2023-01-30T18:00:19.546Z,17.65
2023-01-30T18:02:47.327Z,19.33
2023-01-30T18:05:15.550Z,17.92
2023-01-30T18:07:43.079Z,17.77
2023-01-30T18:10:20.774Z,16.42
2023-01-30T18:12:48.191Z,17.63
2023-01-30T18:15:16.370Z,19.38
2023-01-30T18:17:47.449Z,20.17
2023-01-30T18:20:22.932Z,23.17
2023-01-30T18:22:50.279Z,21.48
2023-01-30T18:25:18.218Z,18.95
2023-01-30T18:27:47.623Z,19.77
2023-01-30T18:30:17.514Z,19.77
2023-01-30T18:32:53.284Z,20.75
2023-01-30T18:35:23.206Z,17.75
2023-01-30T18:37:51.225Z,23.33
2023-01-30T18:40:20.323Z,21.70
2023-01-30T18:42:48.162Z,20.17
2023-01-30T18:45:15.827Z,19.48
2023-01-30T18:47:43.065Z,16.15
2023-01-30T18:50:10.971Z,19.08
2023-01-30T18:52:38.101Z,18.02
2023-01-30T18:55:06.018Z,21.33
2023-01-30T18:57:33.907Z,14.73
2023-01-30T19:00:01.406Z,18.92
2023-01-30T19:02:28.910Z,17.35
2023-01-30T19:04:56.384Z,16.33
2023-01-30T19:07:23.556Z,16.60
2023-01-30T19:09:51.016Z,21.67
2023-01-30T19:12:50.293Z,18.95
2023-01-30T19:15:17.748Z,14.38
2023-01-30T19:17:44.979Z,20.52
2023-01-30T19:20:12.753Z,24.67
2023-01-30T19:22:40.040Z,27.45
2023-01-30T19:25:08.116Z,32.08
2023-01-30T19:27:38.357Z,26.90
2023-01-30T19:30:06.632Z,35.03
2023-01-30T19:32:34.028Z,47.10
2023-01-30T19:35:01.654Z,27.67
2023-01-30T19:37:28.953Z,38.15
2023-01-30T19:39:56.412Z,16.52
2023-01-30T19:42:23.626Z,26.30
2023-01-30T19:44:51.062Z,26.58
2023-01-30T19:47:21.869Z,26.88
2023-01-30T19:49:49.560Z,27.20
2023-01-30T19:52:16.739Z,39.45
2023-01-30T19:54:46.986Z,17.92
2023-01-30T19:57:14.330Z,16.13
2023-01-30T19:59:42.780Z,22.63
2023-01-30T20:02:10.532Z,14.63
2023-01-30T20:04:39.788Z,14.32
2023-01-30T20:07:07.130Z,13.63
2023-01-30T20:09:34.732Z,14.57
2023-01-30T20:12:01.952Z,15.00
2023-01-30T20:14:29.388Z,14.18
2023-01-30T20:16:56.673Z,14.25
2023-01-30T20:19:24.121Z,19.25
2023-01-30T20:21:51.418Z,28.95
2023-01-30T20:24:19.366Z,15.40
2023-01-30T20:26:48.518Z,17.42
2023-01-30T20:29:17.642Z,14.02
2023-01-30T20:31:45.493Z,12.23
2023-01-30T20:34:14.461Z,13.18
2023-01-30T20:36:42.191Z,14.38
2023-01-30T20:39:09.780Z,11.77
2023-01-30T20:41:37.872Z,12.13
2023-01-30T20:44:07.988Z,12.65
2023-01-30T20:46:41.520Z,15.45
2023-01-30T20:49:18.643Z,12.90
2023-01-30T20:51:47.105Z,12.88
2023-01-30T20:54:15.372Z,11.23
2023-01-30T20:56:48.547Z,10.60
2023-01-30T20:59:18.710Z,13.48
2023-01-30T21:01:46.718Z,12.50
2023-01-30T21:04:16.356Z,11.32
2023-01-30T21:06:46.014Z,12.27
2023-01-30T21:09:17.832Z,11.52
2023-01-30T21:11:45.795Z,12.00
2023-01-30T21:14:13.427Z,9.82
2023-01-30T21:16:41.121Z,13.18
2023-01-30T21:19:12.979Z,10.00
2023-01-30T21:21:52.748Z,9.93
2023-01-30T21:24:24.013Z,9.60
2023-01-30T21:26:52.110Z,10.13
2023-01-30T21:29:22.608Z,10.40
2023-01-30T21:31:51.118Z,9.77
2023-01-30T21:34:18.837Z,10.57
2023-01-30T21:37:06.129Z,10.88
2023-01-30T21:39:52.149Z,9.85
2023-01-30T21:42:57.644Z,9.00
2023-01-30T21:45:25.202Z,9.88
2023-01-30T21:47:54.195Z,8.20
2023-01-30T21:50:21.673Z,7.72
2023-01-30T21:52:48.917Z,8.43
2023-01-30T21:55:16.529Z,8.32
2023-01-30T21:57:43.779Z,7.28
2023-01-30T22:00:11.826Z,7.45
2023-01-30T22:02:38.981Z,8.52
2023-01-30T22:05:06.985Z,8.82
2023-01-30T22:07:34.320Z,9.55
2023-01-30T22:10:02.536Z,8.95
2023-01-30T22:12:31.789Z,7.70
2023-01-30T22:14:59.229Z,8.68
2023-01-30T22:17:26.465Z,6.88
2023-01-30T22:19:54.123Z,7.32
2023-01-30T22:22:24.513Z,6.85
2023-01-30T22:24:52.400Z,6.82
2023-01-30T22:27:19.606Z,7.55
2023-01-30T22:29:47.042Z,7.82
2023-01-30T22:32:14.243Z,7.18
2023-01-30T22:34:41.624Z,8.90
2023-01-30T22:37:08.874Z,7.68
2023-01-30T22:39:36.296Z,6.15
2023-01-30T22:42:03.530Z,6.07
2023-01-30T22:44:30.958Z,6.50
2023-01-30T22:46:58.221Z,6.75
2023-01-30T22:49:25.729Z,7.07
2023-01-30T22:51:52.874Z,7.72
2023-01-30T22:54:20.332Z,7.72
2023-01-30T22:56:48.973Z,6.05
2023-01-30T22:59:16.516Z,7.05
2023-01-30T23:01:50.708Z,6.80
2023-01-30T23:04:20.522Z,6.80
2023-01-30T23:06:49.128Z,7.00
2023-01-30T23:09:19.833Z,6.03
2023-01-30T23:12:12.026Z,6.47
2023-01-30T23:14:40.574Z,7.28
2023-01-30T23:17:27.310Z,7.57
2023-01-30T23:19:55.153Z,6.82
2023-01-30T23:22:22.741Z,7.28
2023-01-30T23:24:51.305Z,6.60
2023-01-30T23:27:19.537Z,6.07
2023-01-30T23:29:47.268Z,6.60
2023-01-30T23:32:15.148Z,7.13
2023-01-30T23:34:42.602Z,7.25
2023-01-30T23:37:09.861Z,6.90
2023-01-30T23:39:37.634Z,6.40
2023-01-30T23:42:04.872Z,6.78
2023-01-30T23:44:32.277Z,6.80
2023-01-30T23:46:59.487Z,7.07
2023-01-30T23:49:27.066Z,7.68
2023-01-30T23:51:54.195Z,6.28
2023-01-30T23:54:21.621Z,7.57
2023-01-30T23:56:48.771Z,7.22
2023-01-30T23:59:16.159Z,7.70
